sensor_id;sensor_type;location;lat;lon;timestamp;temperature;humidity
38241;DHT22;24037;49.536;8.500;2022-12-29T00:01:41;10.20;1.00
38241;DHT22;24037;49.536;8.500;2022-12-29T00:04:10;10.20;1.00
38241;DHT22;24037;49.536;8.500;2022-12-29T00:06:37;10.20;1.00
38241;DHT22;24037;49.536;8.500;2022-12-29T00:09:03;10.30;1.00
38241;DHT22;24037;49.536;8.500;2022-12-29T00:11:30;10.40;1.00
38241;DHT22;24037;49.536;8.500;2022-12-29T00:13:56;10.40;1.00
38241;DHT22;24037;49.536;8.500;2022-12-29T00:16:42;10.40;1.00
38241;DHT22;24037;49.536;8.500;2022-12-29T00:19:09;10.50;1.00
38241;DHT22;24037;49.536;8.500;2022-12-29T00:21:57;10.60;1.00
38241;DHT22;24037;49.536;8.500;2022-12-29T00:24:43;10.60;1.00
38241;DHT22;24037;49.536;8.500;2022-12-29T00:27:29;10.70;1.00
38241;DHT22;24037;49.536;8.500;2022-12-29T00:30:24;10.90;1.00
38241;DHT22;24037;49.536;8.500;2022-12-29T00:33:19;11.00;1.00
38241;DHT22;24037;49.536;8.500;2022-12-29T00:38:41;11.00;1.00
38241;DHT22;24037;49.536;8.500;2022-12-29T00:41:28;11.00;1.00
38241;DHT22;24037;49.536;8.500;2022-12-29T00:44:13;11.00;1.00
38241;DHT22;24037;49.536;8.500;2022-12-29T00:46:41;11.00;1.00
38241;DHT22;24037;49.536;8.500;2022-12-29T00:49:11;11.00;1.00
38241;DHT22;24037;49.536;8.500;2022-12-29T00:52:03;11.10;1.00
38241;DHT22;24037;49.536;8.500;2022-12-29T00:54:32;11.10;1.00
38241;DHT22;24037;49.536;8.500;2022-12-29T00:56:58;11.20;1.00
38241;DHT22;24037;49.536;8.500;2022-12-29T00:59:25;11.30;1.00
38241;DHT22;24037;49.536;8.500;2022-12-29T01:01:52;11.20;1.00
38241;DHT22;24037;49.536;8.500;2022-12-29T01:04:20;11.20;1.00
38241;DHT22;24037;49.536;8.500;2022-12-29T01:06:48;11.20;1.00
38241;DHT22;24037;49.536;8.500;2022-12-29T01:09:16;11.20;1.00
38241;DHT22;24037;49.536;8.500;2022-12-29T01:12:01;11.20;1.00
38241;DHT22;24037;49.536;8.500;2022-12-29T01:14:28;11.20;1.00
38241;DHT22;24037;49.536;8.500;2022-12-29T01:16:55;11.20;1.00
38241;DHT22;24037;49.536;8.500;2022-12-29T01:19:21;11.30;1.00
38241;DHT22;24037;49.536;8.500;2022-12-29T01:21:49;11.20;1.00
38241;DHT22;24037;49.536;8.500;2022-12-29T01:24:16;11.20;1.00
38241;DHT22;24037;49.536;8.500;2022-12-29T01:26:43;11.20;1.00
38241;DHT22;24037;49.536;8.500;2022-12-29T01:29:09;11.20;1.00
38241;DHT22;24037;49.536;8.500;2022-12-29T01:31:35;11.20;1.00
38241;DHT22;24037;49.536;8.500;2022-12-29T01:34:02;11.20;1.00
38241;DHT22;24037;49.536;8.500;2022-12-29T01:36:28;11.20;1.00
38241;DHT22;24037;49.536;8.500;2022-12-29T01:38:54;11.20;1.00
38241;DHT22;24037;49.536;8.500;2022-12-29T01:41:21;11.20;1.00
38241;DHT22;24037;49.536;8.500;2022-12-29T01:43:52;11.20;1.00
38241;DHT22;24037;49.536;8.500;2022-12-29T01:48:58;11.20;1.00
38241;DHT22;24037;49.536;8.500;2022-12-29T01:51:26;11.20;1.00
38241;DHT22;24037;49.536;8.500;2022-12-29T01:53:55;11.30;1.00
38241;DHT22;24037;49.536;8.500;2022-12-29T01:56:22;11.30;1.00
38241;DHT22;24037;49.536;8.500;2022-12-29T01:58:54;11.30;1.00
38241;DHT22;24037;49.536;8.500;2022-12-29T02:01:21;11.30;1.00
38241;DHT22;24037;49.536;8.500;2022-12-29T02:03:48;11.30;1.00
38241;DHT22;24037;49.536;8.500;2022-12-29T02:06:49;11.30;1.00
38241;DHT22;24037;49.536;8.500;2022-12-29T02:09:17;11.30;1.00
38241;DHT22;24037;49.536;8.500;2022-12-29T02:11:44;11.30;1.00
38241;DHT22;24037;49.536;8.500;2022-12-29T02:14:14;11.30;1.00
38241;DHT22;24037;49.536;8.500;2022-12-29T02:22:25;11.20;1.00
38241;DHT22;24037;49.536;8.500;2022-12-29T02:27:51;11.30;1.00
38241;DHT22;24037;49.536;8.500;2022-12-29T02:31:02;11.20;1.00
38241;DHT22;24037;49.536;8.500;2022-12-29T02:33:38;11.30;1.00
38241;DHT22;24037;49.536;8.500;2022-12-29T02:52:39;11.40;1.00
38241;DHT22;24037;49.536;8.500;2022-12-29T02:55:06;11.40;1.00
38241;DHT22;24037;49.536;8.500;2022-12-29T02:57:34;11.40;1.00
38241;DHT22;24037;49.536;8.500;2022-12-29T03:00:08;11.40;1.00
38241;DHT22;24037;49.536;8.500;2022-12-29T03:05:45;11.50;1.00
38241;DHT22;24037;49.536;8.500;2022-12-29T03:11:04;11.40;1.00
38241;DHT22;24037;49.536;8.500;2022-12-29T03:13:39;11.40;1.00
38241;DHT22;24037;49.536;8.500;2022-12-29T03:16:47;11.30;1.00
38241;DHT22;24037;49.536;8.500;2022-12-29T03:21:46;11.30;1.00
38241;DHT22;24037;49.536;8.500;2022-12-29T03:24:50;11.30;1.00
38241;DHT22;24037;49.536;8.500;2022-12-29T03:27:35;11.30;1.00
38241;DHT22;24037;49.536;8.500;2022-12-29T03:30:04;11.30;1.00
38241;DHT22;24037;49.536;8.500;2022-12-29T03:32:35;11.20;1.00
38241;DHT22;24037;49.536;8.500;2022-12-29T03:35:03;11.20;1.00
38241;DHT22;24037;49.536;8.500;2022-12-29T03:37:36;11.20;1.00
38241;DHT22;24037;49.536;8.500;2022-12-29T03:40:05;11.20;1.00
38241;DHT22;24037;49.536;8.500;2022-12-29T03:42:34;11.20;1.00
38241;DHT22;24037;49.536;8.500;2022-12-29T03:45:01;11.20;1.00
38241;DHT22;24037;49.536;8.500;2022-12-29T03:47:32;11.20;1.00
38241;DHT22;24037;49.536;8.500;2022-12-29T03:49:58;11.30;1.00
38241;DHT22;24037;49.536;8.500;2022-12-29T03:52:25;11.30;1.00
38241;DHT22;24037;49.536;8.500;2022-12-29T03:54:52;11.30;1.00
38241;DHT22;24037;49.536;8.500;2022-12-29T03:57:18;11.30;1.00
38241;DHT22;24037;49.536;8.500;2022-12-29T03:59:55;11.20;1.00
38241;DHT22;24037;49.536;8.500;2022-12-29T04:02:22;11.30;1.00
38241;DHT22;24037;49.536;8.500;2022-12-29T04:04:48;11.30;1.00
38241;DHT22;24037;49.536;8.500;2022-12-29T04:07:14;11.30;1.00
38241;DHT22;24037;49.536;8.500;2022-12-29T04:09:41;11.20;1.00
38241;DHT22;24037;49.536;8.500;2022-12-29T04:12:10;11.30;1.00
38241;DHT22;24037;49.536;8.500;2022-12-29T04:14:37;11.30;1.00
38241;DHT22;24037;49.536;8.500;2022-12-29T04:17:03;11.30;1.00
38241;DHT22;24037;49.536;8.500;2022-12-29T04:19:29;11.20;1.00
38241;DHT22;24037;49.536;8.500;2022-12-29T04:21:56;11.30;1.00
38241;DHT22;24037;49.536;8.500;2022-12-29T04:24:22;11.30;1.00
38241;DHT22;24037;49.536;8.500;2022-12-29T04:26:50;11.20;1.00
38241;DHT22;24037;49.536;8.500;2022-12-29T04:29:51;11.20;1.00
38241;DHT22;24037;49.536;8.500;2022-12-29T04:32:45;11.20;1.00
38241;DHT22;24037;49.536;8.500;2022-12-29T04:35:12;11.20;1.00
38241;DHT22;24037;49.536;8.500;2022-12-29T04:37:38;11.20;1.00
38241;DHT22;24037;49.536;8.500;2022-12-29T04:40:04;11.20;1.00
38241;DHT22;24037;49.536;8.500;2022-12-29T04:42:31;11.20;1.00
38241;DHT22;24037;49.536;8.500;2022-12-29T04:44:57;11.20;1.00
38241;DHT22;24037;49.536;8.500;2022-12-29T04:47:55;11.20;1.00
38241;DHT22;24037;49.536;8.500;2022-12-29T04:50:56;11.10;1.00
38241;DHT22;24037;49.536;8.500;2022-12-29T04:53:25;11.10;1.00
38241;DHT22;24037;49.536;8.500;2022-12-29T04:55:53;11.00;1.00
38241;DHT22;24037;49.536;8.500;2022-12-29T04:58:21;11.00;1.00
38241;DHT22;24037;49.536;8.500;2022-12-29T05:00:48;10.90;1.00
38241;DHT22;24037;49.536;8.500;2022-12-29T05:03:14;10.90;1.00
38241;DHT22;24037;49.536;8.500;2022-12-29T05:05:43;10.90;1.00
38241;DHT22;24037;49.536;8.500;2022-12-29T05:08:09;11.00;1.00
38241;DHT22;24037;49.536;8.500;2022-12-29T05:10:35;11.00;1.00
38241;DHT22;24037;49.536;8.500;2022-12-29T05:13:10;11.00;1.00
38241;DHT22;24037;49.536;8.500;2022-12-29T05:15:36;11.00;1.00
38241;DHT22;24037;49.536;8.500;2022-12-29T05:18:03;10.90;1.00
38241;DHT22;24037;49.536;8.500;2022-12-29T05:20:29;10.90;1.00
38241;DHT22;24037;49.536;8.500;2022-12-29T05:22:56;10.90;1.00
38241;DHT22;24037;49.536;8.500;2022-12-29T05:25:23;11.00;1.00
38241;DHT22;24037;49.536;8.500;2022-12-29T05:27:59;11.00;1.00
38241;DHT22;24037;49.536;8.500;2022-12-29T05:30:40;11.00;1.00
38241;DHT22;24037;49.536;8.500;2022-12-29T05:33:06;11.00;1.00
38241;DHT22;24037;49.536;8.500;2022-12-29T05:35:34;11.00;1.00
38241;DHT22;24037;49.536;8.500;2022-12-29T05:38:00;11.00;1.00
38241;DHT22;24037;49.536;8.500;2022-12-29T05:40:27;10.90;1.00
38241;DHT22;24037;49.536;8.500;2022-12-29T05:42:57;10.90;1.00
38241;DHT22;24037;49.536;8.500;2022-12-29T05:45:40;10.90;1.00
38241;DHT22;24037;49.536;8.500;2022-12-29T05:48:32;10.90;1.00
38241;DHT22;24037;49.536;8.500;2022-12-29T05:51:20;10.90;1.00
38241;DHT22;24037;49.536;8.500;2022-12-29T05:53:48;10.80;1.00
38241;DHT22;24037;49.536;8.500;2022-12-29T05:56:15;10.90;1.00
38241;DHT22;24037;49.536;8.500;2022-12-29T05:58:42;10.90;1.00
38241;DHT22;24037;49.536;8.500;2022-12-29T06:01:08;11.00;1.00
38241;DHT22;24037;49.536;8.500;2022-12-29T06:03:34;10.90;1.00
38241;DHT22;24037;49.536;8.500;2022-12-29T06:06:00;10.90;1.00
38241;DHT22;24037;49.536;8.500;2022-12-29T06:08:27;10.90;1.00
38241;DHT22;24037;49.536;8.500;2022-12-29T06:10:54;10.90;1.00
38241;DHT22;24037;49.536;8.500;2022-12-29T06:13:20;10.90;1.00
38241;DHT22;24037;49.536;8.500;2022-12-29T06:15:49;10.90;1.00
38241;DHT22;24037;49.536;8.500;2022-12-29T06:18:16;10.90;1.00
38241;DHT22;24037;49.536;8.500;2022-12-29T06:20:44;10.90;1.00
38241;DHT22;24037;49.536;8.500;2022-12-29T06:23:10;10.90;1.00
38241;DHT22;24037;49.536;8.500;2022-12-29T06:25:39;10.90;1.00
38241;DHT22;24037;49.536;8.500;2022-12-29T06:28:05;10.90;1.00
38241;DHT22;24037;49.536;8.500;2022-12-29T06:30:32;10.90;1.00
38241;DHT22;24037;49.536;8.500;2022-12-29T06:33:00;10.90;1.00
38241;DHT22;24037;49.536;8.500;2022-12-29T06:35:26;10.80;1.00
38241;DHT22;24037;49.536;8.500;2022-12-29T06:37:52;10.80;1.00
38241;DHT22;24037;49.536;8.500;2022-12-29T06:40:19;10.90;1.00
38241;DHT22;24037;49.536;8.500;2022-12-29T06:43:04;11.00;1.00
38241;DHT22;24037;49.536;8.500;2022-12-29T06:45:58;11.00;1.00
38241;DHT22;24037;49.536;8.500;2022-12-29T06:48:24;11.00;1.00
38241;DHT22;24037;49.536;8.500;2022-12-29T06:50:50;11.00;1.00
38241;DHT22;24037;49.536;8.500;2022-12-29T06:53:17;11.00;1.00
38241;DHT22;24037;49.536;8.500;2022-12-29T06:55:43;11.10;1.00
38241;DHT22;24037;49.536;8.500;2022-12-29T06:58:09;11.00;1.00
38241;DHT22;24037;49.536;8.500;2022-12-29T07:00:35;11.10;1.00
38241;DHT22;24037;49.536;8.500;2022-12-29T07:03:01;11.10;1.00
38241;DHT22;24037;49.536;8.500;2022-12-29T07:05:28;11.10;1.00
38241;DHT22;24037;49.536;8.500;2022-12-29T07:07:57;11.00;1.00
38241;DHT22;24037;49.536;8.500;2022-12-29T07:10:23;11.00;1.00
38241;DHT22;24037;49.536;8.500;2022-12-29T07:12:50;11.10;1.00
38241;DHT22;24037;49.536;8.500;2022-12-29T07:15:16;11.10;1.00
38241;DHT22;24037;49.536;8.500;2022-12-29T07:17:42;11.10;1.00
38241;DHT22;24037;49.536;8.500;2022-12-29T07:20:09;11.20;1.00
38241;DHT22;24037;49.536;8.500;2022-12-29T07:22:36;11.20;1.00
38241;DHT22;24037;49.536;8.500;2022-12-29T07:25:02;11.20;1.00
38241;DHT22;24037;49.536;8.500;2022-12-29T07:27:29;11.20;1.00
38241;DHT22;24037;49.536;8.500;2022-12-29T07:29:55;11.20;1.00
38241;DHT22;24037;49.536;8.500;2022-12-29T07:32:21;11.30;1.00
38241;DHT22;24037;49.536;8.500;2022-12-29T07:34:47;11.30;1.00
38241;DHT22;24037;49.536;8.500;2022-12-29T07:37:15;11.30;1.00
38241;DHT22;24037;49.536;8.500;2022-12-29T07:39:41;11.40;1.00
38241;DHT22;24037;49.536;8.500;2022-12-29T07:42:07;11.40;1.00
38241;DHT22;24037;49.536;8.500;2022-12-29T07:44:41;11.50;1.00
38241;DHT22;24037;49.536;8.500;2022-12-29T07:47:22;11.50;1.00
38241;DHT22;24037;49.536;8.500;2022-12-29T07:49:48;11.50;1.00
38241;DHT22;24037;49.536;8.500;2022-12-29T07:52:14;11.50;1.00
38241;DHT22;24037;49.536;8.500;2022-12-29T07:54:40;11.50;1.00
38241;DHT22;24037;49.536;8.500;2022-12-29T07:57:06;11.50;1.00
38241;DHT22;24037;49.536;8.500;2022-12-29T07:59:32;11.50;1.00
38241;DHT22;24037;49.536;8.500;2022-12-29T08:01:58;11.50;1.00
38241;DHT22;24037;49.536;8.500;2022-12-29T08:04:25;11.50;1.00
38241;DHT22;24037;49.536;8.500;2022-12-29T08:06:51;11.50;1.00
38241;DHT22;24037;49.536;8.500;2022-12-29T08:09:17;11.60;1.00
38241;DHT22;24037;49.536;8.500;2022-12-29T08:11:43;11.60;1.00
38241;DHT22;24037;49.536;8.500;2022-12-29T08:14:10;11.60;1.00
38241;DHT22;24037;49.536;8.500;2022-12-29T08:16:36;11.60;1.00
38241;DHT22;24037;49.536;8.500;2022-12-29T08:19:02;11.60;1.00
38241;DHT22;24037;49.536;8.500;2022-12-29T08:21:30;11.50;1.00
38241;DHT22;24037;49.536;8.500;2022-12-29T08:23:56;11.60;1.00
38241;DHT22;24037;49.536;8.500;2022-12-29T08:26:23;11.60;1.00
38241;DHT22;24037;49.536;8.500;2022-12-29T08:28:49;11.70;1.00
38241;DHT22;24037;49.536;8.500;2022-12-29T08:31:17;11.70;1.00
38241;DHT22;24037;49.536;8.500;2022-12-29T08:33:43;11.80;99.90
38241;DHT22;24037;49.536;8.500;2022-12-29T08:36:09;11.80;99.90
38241;DHT22;24037;49.536;8.500;2022-12-29T08:38:36;11.80;1.00
38241;DHT22;24037;49.536;8.500;2022-12-29T08:41:02;11.80;1.00
38241;DHT22;24037;49.536;8.500;2022-12-29T08:43:28;11.70;1.00
38241;DHT22;24037;49.536;8.500;2022-12-29T08:45:55;11.80;1.00
38241;DHT22;24037;49.536;8.500;2022-12-29T08:48:21;11.90;1.00
38241;DHT22;24037;49.536;8.500;2022-12-29T08:50:49;11.90;1.00
38241;DHT22;24037;49.536;8.500;2022-12-29T08:53:16;11.90;1.00
38241;DHT22;24037;49.536;8.500;2022-12-29T08:55:47;12.00;1.00
38241;DHT22;24037;49.536;8.500;2022-12-29T08:58:14;11.90;1.00
38241;DHT22;24037;49.536;8.500;2022-12-29T09:00:43;11.90;1.00
38241;DHT22;24037;49.536;8.500;2022-12-29T09:03:10;11.90;1.00
38241;DHT22;24037;49.536;8.500;2022-12-29T09:05:36;12.00;1.00
38241;DHT22;24037;49.536;8.500;2022-12-29T09:08:03;11.90;1.00
38241;DHT22;24037;49.536;8.500;2022-12-29T09:10:30;11.90;1.00
38241;DHT22;24037;49.536;8.500;2022-12-29T09:12:56;11.90;1.00
38241;DHT22;24037;49.536;8.500;2022-12-29T09:15:22;11.90;1.00
38241;DHT22;24037;49.536;8.500;2022-12-29T09:17:48;11.80;1.00
38241;DHT22;24037;49.536;8.500;2022-12-29T09:20:18;11.80;1.00
38241;DHT22;24037;49.536;8.500;2022-12-29T09:22:45;11.90;1.00
38241;DHT22;24037;49.536;8.500;2022-12-29T09:25:11;12.00;1.00
38241;DHT22;24037;49.536;8.500;2022-12-29T09:27:38;12.00;1.00
38241;DHT22;24037;49.536;8.500;2022-12-29T09:30:06;12.20;99.90
38241;DHT22;24037;49.536;8.500;2022-12-29T09:32:33;12.30;99.90
38241;DHT22;24037;49.536;8.500;2022-12-29T09:35:00;12.40;99.90
38241;DHT22;24037;49.536;8.500;2022-12-29T09:37:26;12.50;99.90
38241;DHT22;24037;49.536;8.500;2022-12-29T09:39:52;12.50;99.90
38241;DHT22;24037;49.536;8.500;2022-12-29T09:42:26;12.60;99.90
38241;DHT22;24037;49.536;8.500;2022-12-29T09:47:32;12.70;99.90
38241;DHT22;24037;49.536;8.500;2022-12-29T09:52:40;12.60;1.00
38241;DHT22;24037;49.536;8.500;2022-12-29T09:55:14;12.50;1.00
38241;DHT22;24037;49.536;8.500;2022-12-29T09:57:57;12.60;1.00
38241;DHT22;24037;49.536;8.500;2022-12-29T10:03:36;12.60;99.90
38241;DHT22;24037;49.536;8.500;2022-12-29T10:06:09;12.60;99.90
38241;DHT22;24037;49.536;8.500;2022-12-29T10:11:40;12.70;99.90
38241;DHT22;24037;49.536;8.500;2022-12-29T10:24:56;12.50;1.00
38241;DHT22;24037;49.536;8.500;2022-12-29T10:27:24;12.50;1.00
38241;DHT22;24037;49.536;8.500;2022-12-29T10:29:55;12.60;1.00
38241;DHT22;24037;49.536;8.500;2022-12-29T10:34:51;12.60;1.00
38241;DHT22;24037;49.536;8.500;2022-12-29T10:37:38;12.60;1.00
38241;DHT22;24037;49.536;8.500;2022-12-29T10:40:22;12.60;1.00
38241;DHT22;24037;49.536;8.500;2022-12-29T10:42:54;12.60;1.00
38241;DHT22;24037;49.536;8.500;2022-12-29T10:45:26;12.60;1.00
38241;DHT22;24037;49.536;8.500;2022-12-29T10:48:02;12.70;1.00
38241;DHT22;24037;49.536;8.500;2022-12-29T10:50:29;12.70;1.00
38241;DHT22;24037;49.536;8.500;2022-12-29T10:53:00;12.80;1.00
38241;DHT22;24037;49.536;8.500;2022-12-29T10:55:32;12.80;1.00
38241;DHT22;24037;49.536;8.500;2022-12-29T10:58:02;12.90;1.00
38241;DHT22;24037;49.536;8.500;2022-12-29T11:00:31;12.80;99.90
38241;DHT22;24037;49.536;8.500;2022-12-29T11:03:49;12.90;99.90
38241;DHT22;24037;49.536;8.500;2022-12-29T11:06:01;13.00;99.90
38241;DHT22;24037;49.536;8.500;2022-12-29T11:08:35;13.00;99.90
38241;DHT22;24037;49.536;8.500;2022-12-29T11:11:04;13.00;99.90
38241;DHT22;24037;49.536;8.500;2022-12-29T11:13:33;13.00;99.90
38241;DHT22;24037;49.536;8.500;2022-12-29T11:16:00;12.90;99.90
38241;DHT22;24037;49.536;8.500;2022-12-29T11:18:36;12.90;99.90
38241;DHT22;24037;49.536;8.500;2022-12-29T11:21:34;12.80;1.00
38241;DHT22;24037;49.536;8.500;2022-12-29T11:24:19;12.80;1.00
38241;DHT22;24037;49.536;8.500;2022-12-29T11:26:46;12.90;1.00
38241;DHT22;24037;49.536;8.500;2022-12-29T11:29:16;12.90;1.00
38241;DHT22;24037;49.536;8.500;2022-12-29T11:31:51;12.90;1.00
38241;DHT22;24037;49.536;8.500;2022-12-29T11:37:05;12.70;1.00
38241;DHT22;24037;49.536;8.500;2022-12-29T11:39:56;12.70;1.00
38241;DHT22;24037;49.536;8.500;2022-12-29T11:42:40;12.70;1.00
38241;DHT22;24037;49.536;8.500;2022-12-29T11:45:16;12.60;1.00
38241;DHT22;24037;49.536;8.500;2022-12-29T11:47:52;12.60;1.00
38241;DHT22;24037;49.536;8.500;2022-12-29T11:50:40;12.60;1.00
38241;DHT22;24037;49.536;8.500;2022-12-29T11:53:21;12.70;1.00
38241;DHT22;24037;49.536;8.500;2022-12-29T11:58:18;12.70;1.00
38241;DHT22;24037;49.536;8.500;2022-12-29T12:00:46;12.70;1.00
38241;DHT22;24037;49.536;8.500;2022-12-29T12:03:24;12.70;1.00
38241;DHT22;24037;49.536;8.500;2022-12-29T12:05:58;12.80;1.00
38241;DHT22;24037;49.536;8.500;2022-12-29T12:08:31;12.90;1.00
38241;DHT22;24037;49.536;8.500;2022-12-29T12:11:17;13.00;1.00
38241;DHT22;24037;49.536;8.500;2022-12-29T12:14:11;13.10;1.00
38241;DHT22;24037;49.536;8.500;2022-12-29T12:17:11;13.20;99.90
38241;DHT22;24037;49.536;8.500;2022-12-29T12:19:43;13.20;99.90
38241;DHT22;24037;49.536;8.500;2022-12-29T12:22:13;13.20;99.90
38241;DHT22;24037;49.536;8.500;2022-12-29T12:27:37;13.30;99.90
38241;DHT22;24037;49.536;8.500;2022-12-29T12:30:16;13.20;99.90
38241;DHT22;24037;49.536;8.500;2022-12-29T12:35:28;13.20;99.90
38241;DHT22;24037;49.536;8.500;2022-12-29T12:46:18;12.90;99.90
38241;DHT22;24037;49.536;8.500;2022-12-29T13:16:03;12.70;99.90
38241;DHT22;24037;49.536;8.500;2022-12-29T13:18:53;12.70;99.90
38241;DHT22;24037;49.536;8.500;2022-12-29T13:21:41;12.70;99.90
38241;DHT22;24037;49.536;8.500;2022-12-29T13:26:57;12.50;99.90
38241;DHT22;24037;49.536;8.500;2022-12-29T13:32:24;12.40;99.90
38241;DHT22;24037;49.536;8.500;2022-12-29T13:37:30;12.30;99.90
38241;DHT22;24037;49.536;8.500;2022-12-29T13:40:03;12.30;99.90
38241;DHT22;24037;49.536;8.500;2022-12-29T13:42:31;12.20;99.90
38241;DHT22;24037;49.536;8.500;2022-12-29T13:45:05;12.20;99.90
38241;DHT22;24037;49.536;8.500;2022-12-29T13:47:39;12.10;99.90
38241;DHT22;24037;49.536;8.500;2022-12-29T13:50:22;12.10;99.90
38241;DHT22;24037;49.536;8.500;2022-12-29T13:53:21;12.00;99.90
38241;DHT22;24037;49.536;8.500;2022-12-29T14:01:38;11.80;1.00
38241;DHT22;24037;49.536;8.500;2022-12-29T14:04:13;11.70;1.00
38241;DHT22;24037;49.536;8.500;2022-12-29T14:06:40;11.60;1.00
38241;DHT22;24037;49.536;8.500;2022-12-29T14:12:34;11.40;1.00
38241;DHT22;24037;49.536;8.500;2022-12-29T14:18:02;11.30;1.00
38241;DHT22;24037;49.536;8.500;2022-12-29T14:20:29;11.20;1.00
38241;DHT22;24037;49.536;8.500;2022-12-29T14:28:57;10.90;1.00
38241;DHT22;24037;49.536;8.500;2022-12-29T14:31:41;10.90;1.00
38241;DHT22;24037;49.536;8.500;2022-12-29T14:39:42;10.70;1.00
38241;DHT22;24037;49.536;8.500;2022-12-29T14:52:54;10.20;1.00
38241;DHT22;24037;49.536;8.500;2022-12-29T14:55:37;10.10;1.00
38241;DHT22;24037;49.536;8.500;2022-12-29T14:58:30;10.10;1.00
38241;DHT22;24037;49.536;8.500;2022-12-29T15:00:59;10.10;1.00
38241;DHT22;24037;49.536;8.500;2022-12-29T15:03:32;10.20;1.00
38241;DHT22;24037;49.536;8.500;2022-12-29T15:06:08;10.20;1.00
38241;DHT22;24037;49.536;8.500;2022-12-29T15:08:54;10.20;1.00
38241;DHT22;24037;49.536;8.500;2022-12-29T15:14:31;10.10;1.00
38241;DHT22;24037;49.536;8.500;2022-12-29T15:16:58;10.10;1.00
38241;DHT22;24037;49.536;8.500;2022-12-29T15:19:26;10.10;1.00
38241;DHT22;24037;49.536;8.500;2022-12-29T15:21:54;10.10;1.00
38241;DHT22;24037;49.536;8.500;2022-12-29T15:24:20;10.10;1.00
38241;DHT22;24037;49.536;8.500;2022-12-29T15:26:49;10.10;1.00
38241;DHT22;24037;49.536;8.500;2022-12-29T15:29:40;10.10;1.00
38241;DHT22;24037;49.536;8.500;2022-12-29T15:32:19;9.90;1.00
38241;DHT22;24037;49.536;8.500;2022-12-29T15:34:48;9.90;1.00
38241;DHT22;24037;49.536;8.500;2022-12-29T15:37:24;9.70;1.00
38241;DHT22;24037;49.536;8.500;2022-12-29T15:39:51;9.50;1.00
38241;DHT22;24037;49.536;8.500;2022-12-29T15:44:58;9.40;1.00
38241;DHT22;24037;49.536;8.500;2022-12-29T15:47:28;9.30;1.00
38241;DHT22;24037;49.536;8.500;2022-12-29T15:50:15;9.20;1.00
38241;DHT22;24037;49.536;8.500;2022-12-29T15:52:43;9.20;1.00
38241;DHT22;24037;49.536;8.500;2022-12-29T15:55:40;9.10;1.00
38241;DHT22;24037;49.536;8.500;2022-12-29T15:58:22;9.20;1.00
38241;DHT22;24037;49.536;8.500;2022-12-29T16:00:57;9.20;1.00
38241;DHT22;24037;49.536;8.500;2022-12-29T16:03:31;9.20;1.00
38241;DHT22;24037;49.536;8.500;2022-12-29T16:06:37;9.10;1.00
38241;DHT22;24037;49.536;8.500;2022-12-29T16:09:18;9.20;1.00
38241;DHT22;24037;49.536;8.500;2022-12-29T16:11:55;9.20;1.00
38241;DHT22;24037;49.536;8.500;2022-12-29T16:14:43;9.20;1.00
38241;DHT22;24037;49.536;8.500;2022-12-29T16:17:16;9.20;1.00
38241;DHT22;24037;49.536;8.500;2022-12-29T16:19:51;9.30;1.00
38241;DHT22;24037;49.536;8.500;2022-12-29T16:22:31;9.40;1.00
38241;DHT22;24037;49.536;8.500;2022-12-29T16:25:02;9.50;1.00
38241;DHT22;24037;49.536;8.500;2022-12-29T16:27:40;9.60;1.00
38241;DHT22;24037;49.536;8.500;2022-12-29T16:30:28;9.60;1.00
38241;DHT22;24037;49.536;8.500;2022-12-29T16:32:56;9.70;1.00
38241;DHT22;24037;49.536;8.500;2022-12-29T16:35:39;9.90;1.00
38241;DHT22;24037;49.536;8.500;2022-12-29T16:38:15;9.80;1.00
38241;DHT22;24037;49.536;8.500;2022-12-29T16:40:55;9.90;1.00
38241;DHT22;24037;49.536;8.500;2022-12-29T16:48:21;10.10;1.00
38241;DHT22;24037;49.536;8.500;2022-12-29T16:50:49;10.10;1.00
38241;DHT22;24037;49.536;8.500;2022-12-29T16:53:26;10.00;1.00
38241;DHT22;24037;49.536;8.500;2022-12-29T16:55:53;10.00;1.00
38241;DHT22;24037;49.536;8.500;2022-12-29T16:58:27;10.10;1.00
38241;DHT22;24037;49.536;8.500;2022-12-29T17:00:59;10.10;1.00
38241;DHT22;24037;49.536;8.500;2022-12-29T17:03:37;10.10;1.00
38241;DHT22;24037;49.536;8.500;2022-12-29T17:06:04;10.10;1.00
38241;DHT22;24037;49.536;8.500;2022-12-29T17:08:42;10.00;1.00
38241;DHT22;24037;49.536;8.500;2022-12-29T17:14:04;9.90;1.00
38241;DHT22;24037;49.536;8.500;2022-12-29T17:16:30;9.80;1.00
38241;DHT22;24037;49.536;8.500;2022-12-29T17:18:56;9.90;1.00
38241;DHT22;24037;49.536;8.500;2022-12-29T17:21:23;9.80;1.00
38241;DHT22;24037;49.536;8.500;2022-12-29T17:23:49;9.80;1.00
38241;DHT22;24037;49.536;8.500;2022-12-29T17:26:15;9.70;1.00
38241;DHT22;24037;49.536;8.500;2022-12-29T17:28:41;9.70;1.00
38241;DHT22;24037;49.536;8.500;2022-12-29T17:31:09;9.70;1.00
38241;DHT22;24037;49.536;8.500;2022-12-29T17:33:37;9.70;1.00
38241;DHT22;24037;49.536;8.500;2022-12-29T17:36:05;9.60;1.00
38241;DHT22;24037;49.536;8.500;2022-12-29T17:38:34;9.60;1.00
38241;DHT22;24037;49.536;8.500;2022-12-29T17:41:00;9.60;1.00
38241;DHT22;24037;49.536;8.500;2022-12-29T17:43:27;9.50;1.00
38241;DHT22;24037;49.536;8.500;2022-12-29T17:45:55;9.50;1.00
38241;DHT22;24037;49.536;8.500;2022-12-29T17:48:22;9.40;1.00
38241;DHT22;24037;49.536;8.500;2022-12-29T17:50:50;9.40;1.00
38241;DHT22;24037;49.536;8.500;2022-12-29T17:53:22;9.40;1.00
38241;DHT22;24037;49.536;8.500;2022-12-29T17:55:49;9.40;1.00
38241;DHT22;24037;49.536;8.500;2022-12-29T17:58:21;9.40;1.00
38241;DHT22;24037;49.536;8.500;2022-12-29T18:00:50;9.40;1.00
38241;DHT22;24037;49.536;8.500;2022-12-29T18:03:20;9.50;1.00
38241;DHT22;24037;49.536;8.500;2022-12-29T18:05:48;9.40;1.00
38241;DHT22;24037;49.536;8.500;2022-12-29T18:08:15;9.40;1.00
38241;DHT22;24037;49.536;8.500;2022-12-29T18:10:41;9.40;1.00
38241;DHT22;24037;49.536;8.500;2022-12-29T18:13:18;9.40;1.00
38241;DHT22;24037;49.536;8.500;2022-12-29T18:15:45;9.40;1.00
38241;DHT22;24037;49.536;8.500;2022-12-29T18:18:13;9.40;1.00
38241;DHT22;24037;49.536;8.500;2022-12-29T18:20:41;9.40;1.00
38241;DHT22;24037;49.536;8.500;2022-12-29T18:23:25;9.30;1.00
38241;DHT22;24037;49.536;8.500;2022-12-29T18:25:56;9.30;1.00
38241;DHT22;24037;49.536;8.500;2022-12-29T18:28:24;9.30;1.00
38241;DHT22;24037;49.536;8.500;2022-12-29T18:30:51;9.20;1.00
38241;DHT22;24037;49.536;8.500;2022-12-29T18:33:19;9.10;1.00
38241;DHT22;24037;49.536;8.500;2022-12-29T18:35:57;9.10;1.00
38241;DHT22;24037;49.536;8.500;2022-12-29T18:38:24;9.00;1.00
38241;DHT22;24037;49.536;8.500;2022-12-29T18:40:50;9.00;4.90
38241;DHT22;24037;49.536;8.500;2022-12-29T18:43:17;9.00;6.70
38241;DHT22;24037;49.536;8.500;2022-12-29T18:45:45;8.90;9.20
38241;DHT22;24037;49.536;8.500;2022-12-29T18:48:13;8.90;11.00
38241;DHT22;24037;49.536;8.500;2022-12-29T18:50:39;8.80;11.50
38241;DHT22;24037;49.536;8.500;2022-12-29T18:53:05;8.80;11.00
38241;DHT22;24037;49.536;8.500;2022-12-29T18:55:31;8.80;7.30
38241;DHT22;24037;49.536;8.500;2022-12-29T18:57:58;8.80;2.40
38241;DHT22;24037;49.536;8.500;2022-12-29T19:00:24;8.80;1.00
38241;DHT22;24037;49.536;8.500;2022-12-29T19:02:51;8.90;1.00